createdAt,value
2023-03-24T00:01:19.662Z,29.43
2023-03-24T00:03:49.256Z,26.93
2023-03-24T00:06:18.851Z,31.10
2023-03-24T00:08:48.155Z,27.37
2023-03-24T00:11:21.423Z,30.10
2023-03-24T00:13:50.533Z,31.77
2023-03-24T00:16:20.112Z,28.67
2023-03-24T00:18:53.481Z,28.93
2023-03-24T00:21:25.146Z,29.23
2023-03-24T00:23:55.571Z,27.17
2023-03-24T00:26:25.855Z,26.20
2023-03-24T00:28:55.642Z,30.30
2023-03-24T00:31:24.579Z,29.40
2023-03-24T00:33:53.988Z,28.27
2023-03-24T00:36:24.299Z,27.33
2023-03-24T00:38:52.927Z,33.87
2023-03-24T00:41:21.431Z,34.43
2023-03-24T00:43:51.596Z,31.40
2023-03-24T00:46:28.476Z,33.23
2023-03-24T00:49:02.231Z,38.53
2023-03-24T00:51:32.381Z,26.20
2023-03-24T00:54:01.868Z,24.33
2023-03-24T00:56:34.001Z,24.70
2023-03-24T00:59:03.810Z,24.70
2023-03-24T01:01:36.635Z,23.50
2023-03-24T01:04:06.921Z,26.00
2023-03-24T01:06:37.572Z,26.60
2023-03-24T01:09:07.204Z,26.00
2023-03-24T01:11:40.225Z,28.57
2023-03-24T01:14:11.224Z,28.60
2023-03-24T01:16:39.600Z,34.53
2023-03-24T01:19:09.250Z,31.13
2023-03-24T01:21:38.527Z,33.37
2023-03-24T01:24:07.769Z,30.57
2023-03-24T01:26:36.071Z,27.10
2023-03-24T01:29:04.209Z,26.60
2023-03-24T01:31:33.793Z,26.67
2023-03-24T01:34:02.135Z,26.63
2023-03-24T01:36:30.316Z,25.80
2023-03-24T01:38:58.541Z,26.77
2023-03-24T01:41:28.792Z,24.87
2023-03-24T01:43:56.836Z,28.73
2023-03-24T01:46:26.534Z,33.30
2023-03-24T01:49:01.269Z,30.17
2023-03-24T01:51:34.816Z,26.87
2023-03-24T01:54:05.994Z,25.50
2023-03-24T01:56:38.120Z,26.50
2023-03-24T01:59:11.318Z,26.33
2023-03-24T02:02:02.715Z,29.00
2023-03-24T02:04:54.199Z,28.10
2023-03-24T02:07:33.706Z,29.20
2023-03-24T02:10:04.503Z,34.07
2023-03-24T02:12:33.959Z,24.90
2023-03-24T02:15:05.946Z,25.70
2023-03-24T02:17:51.782Z,30.80
2023-03-24T02:20:51.327Z,28.90
2023-03-24T02:23:56.665Z,28.27
2023-03-24T02:26:47.223Z,27.57
2023-03-24T02:29:45.377Z,24.83
2023-03-24T02:32:48.604Z,23.27
2023-03-24T02:35:45.273Z,24.07
2023-03-24T02:38:31.051Z,22.90
2023-03-24T02:41:07.070Z,24.00
2023-03-24T02:43:46.749Z,22.20
2023-03-24T02:46:24.499Z,26.07
2023-03-24T02:49:07.172Z,23.17
2023-03-24T02:51:41.025Z,25.20
2023-03-24T02:54:13.550Z,31.00
2023-03-24T02:56:48.202Z,23.57
2023-03-24T02:59:38.371Z,30.13
2023-03-24T03:02:23.098Z,23.30
2023-03-24T03:05:06.086Z,23.13
2023-03-24T03:07:37.480Z,24.97
2023-03-24T03:10:14.089Z,26.97
2023-03-24T03:12:49.327Z,25.57
2023-03-24T03:15:24.168Z,27.03
2023-03-24T03:17:58.979Z,26.60
2023-03-24T03:20:34.820Z,26.50
2023-03-24T03:23:08.529Z,30.63
2023-03-24T03:25:42.321Z,23.50
2023-03-24T03:28:17.888Z,27.43
2023-03-24T03:30:51.789Z,25.50
2023-03-24T03:33:25.117Z,26.87
2023-03-24T03:35:59.284Z,21.83
2023-03-24T03:38:34.228Z,23.57
2023-03-24T03:41:05.703Z,25.73
2023-03-24T03:43:38.844Z,25.27
2023-03-24T03:46:08.813Z,22.43
2023-03-24T03:48:40.377Z,23.90
2023-03-24T03:51:14.333Z,24.43
2023-03-24T03:53:53.356Z,21.07
2023-03-24T03:56:24.840Z,24.37
2023-03-24T03:59:06.589Z,22.60
2023-03-24T04:01:37.606Z,27.53
2023-03-24T04:05:03.271Z,21.50
2023-03-24T04:08:03.538Z,25.20
2023-03-24T04:11:19.261Z,20.00
2023-03-24T04:14:29.747Z,24.20
2023-03-24T04:17:47.072Z,23.23
2023-03-24T04:20:32.614Z,21.73
2023-03-24T04:23:09.475Z,19.03
2023-03-24T04:25:56.662Z,22.40
2023-03-24T04:28:31.832Z,20.60
2023-03-24T04:31:07.406Z,20.80
2023-03-24T04:33:43.115Z,20.43
2023-03-24T04:36:19.142Z,20.63
2023-03-24T04:39:17.111Z,24.50
2023-03-24T04:41:52.731Z,26.80
2023-03-24T04:44:28.081Z,28.80
2023-03-24T04:47:17.931Z,28.27
2023-03-24T04:50:02.714Z,25.03
2023-03-24T04:52:31.312Z,26.30
2023-03-24T04:55:03.058Z,27.10
2023-03-24T04:57:32.161Z,26.57
2023-03-24T05:00:09.013Z,25.10
2023-03-24T05:02:38.425Z,25.13
2023-03-24T05:05:12.765Z,24.17
2023-03-24T05:07:45.089Z,23.20
2023-03-24T05:10:16.687Z,24.73
2023-03-24T05:12:50.746Z,25.50
2023-03-24T05:15:19.178Z,28.30
2023-03-24T05:17:53.092Z,23.83
2023-03-24T05:20:25.506Z,23.87
2023-03-24T05:22:53.571Z,23.73
2023-03-24T05:25:21.696Z,24.80
2023-03-24T05:27:50.935Z,27.10
2023-03-24T05:30:26.937Z,24.97
2023-03-24T05:33:03.435Z,25.80
2023-03-24T05:35:31.682Z,25.23
2023-03-24T05:37:59.721Z,29.20
2023-03-24T05:40:27.884Z,18.40
2023-03-24T05:43:16.393Z,20.93
2023-03-24T05:45:51.653Z,83.60
2023-03-24T05:48:30.562Z,49.93
2023-03-24T05:51:16.943Z,36.40
2023-03-24T05:53:46.820Z,25.07
2023-03-24T05:56:25.615Z,30.97
2023-03-24T05:59:14.062Z,29.93
2023-03-24T06:02:05.290Z,25.97
2023-03-24T06:04:57.558Z,19.73
2023-03-24T06:07:26.665Z,23.73
2023-03-24T06:09:58.197Z,28.80
2023-03-24T06:12:27.530Z,20.37
2023-03-24T06:14:59.171Z,24.20
2023-03-24T06:17:30.564Z,24.47
2023-03-24T06:20:06.110Z,33.37
2023-03-24T06:22:45.335Z,43.00
2023-03-24T06:25:20.390Z,56.03
2023-03-24T06:28:06.482Z,32.30
2023-03-24T06:30:37.015Z,38.67
2023-03-24T06:33:08.332Z,27.10
2023-03-24T06:35:38.509Z,27.57
2023-03-24T06:38:11.761Z,22.90
2023-03-24T06:40:41.112Z,29.60
2023-03-24T06:43:09.648Z,22.83
2023-03-24T06:45:40.617Z,19.90
2023-03-24T06:48:13.173Z,21.13
2023-03-24T06:50:42.900Z,23.80
2023-03-24T06:53:12.369Z,23.33
2023-03-24T06:55:40.826Z,23.00
2023-03-24T06:58:10.377Z,18.83
2023-03-24T07:00:57.446Z,20.30
2023-03-24T07:03:34.462Z,22.60
2023-03-24T07:06:30.730Z,20.03
2023-03-24T07:09:06.476Z,15.47
2023-03-24T07:11:34.482Z,18.67
2023-03-24T07:14:04.169Z,18.67
2023-03-24T07:16:34.264Z,19.13
2023-03-24T07:19:23.172Z,28.40
2023-03-24T07:22:09.794Z,19.50
2023-03-24T07:24:58.185Z,23.23
2023-03-24T07:27:59.727Z,19.70
2023-03-24T07:30:39.432Z,20.13
2023-03-24T07:33:10.880Z,18.90
2023-03-24T07:35:39.331Z,21.57
2023-03-24T07:38:10.131Z,21.67
2023-03-24T07:40:38.332Z,19.17
2023-03-24T07:43:06.989Z,18.60
2023-03-24T07:45:35.022Z,15.83
2023-03-24T07:48:03.544Z,19.73
2023-03-24T07:50:36.183Z,20.83
2023-03-24T07:53:12.088Z,13.90
2023-03-24T07:55:40.317Z,13.40
2023-03-24T07:58:14.288Z,16.17
2023-03-24T08:00:54.200Z,12.53
2023-03-24T08:03:29.741Z,15.60
2023-03-24T08:06:24.049Z,15.50
2023-03-24T08:08:54.451Z,16.37
2023-03-24T08:11:22.432Z,15.10
2023-03-24T08:13:50.300Z,20.30
2023-03-24T08:16:18.183Z,15.30
2023-03-24T08:18:46.319Z,20.63
2023-03-24T08:21:14.284Z,14.20
2023-03-24T08:23:42.121Z,14.10
2023-03-24T08:26:11.683Z,11.50
2023-03-24T08:28:39.683Z,10.90
2023-03-24T08:31:07.795Z,10.53
2023-03-24T08:33:36.526Z,12.77
2023-03-24T08:36:04.946Z,12.40
2023-03-24T08:38:32.887Z,12.33
2023-03-24T08:41:06.883Z,14.10
2023-03-24T08:43:37.646Z,12.97
2023-03-24T08:46:08.872Z,11.10
2023-03-24T08:48:40.612Z,12.00
2023-03-24T08:51:13.152Z,12.97
2023-03-24T08:53:41.356Z,14.67
2023-03-24T08:56:10.444Z,17.07
2023-03-24T08:58:39.716Z,9.87
2023-03-24T09:01:07.755Z,14.37
2023-03-24T09:03:35.977Z,10.90
2023-03-24T09:06:03.903Z,15.00
2023-03-24T09:08:31.861Z,14.00
2023-03-24T09:11:00.140Z,15.73
2023-03-24T09:13:28.141Z,15.33
2023-03-24T09:16:01.515Z,11.70
2023-03-24T09:18:30.361Z,10.07
2023-03-24T09:20:58.315Z,17.43
2023-03-24T09:23:29.114Z,11.63
2023-03-24T09:25:57.049Z,12.70
2023-03-24T09:28:25.355Z,10.27
2023-03-24T09:30:59.478Z,8.33
2023-03-24T09:33:29.562Z,8.50
2023-03-24T09:35:59.739Z,8.83
2023-03-24T09:38:28.923Z,8.10
2023-03-24T09:41:00.844Z,17.83
2023-03-24T09:43:34.617Z,16.20
2023-03-24T09:46:07.759Z,10.70
2023-03-24T09:48:41.314Z,12.23
2023-03-24T09:51:13.139Z,8.93
2023-03-24T09:53:47.603Z,9.47
2023-03-24T09:56:19.032Z,8.27
2023-03-24T09:58:51.169Z,9.70
2023-03-24T10:01:21.176Z,10.43
2023-03-24T10:03:49.151Z,15.10
2023-03-24T10:06:23.131Z,11.20
2023-03-24T10:08:58.886Z,12.60
2023-03-24T10:11:33.114Z,16.30
2023-03-24T10:14:15.076Z,13.13
2023-03-24T10:16:50.981Z,11.23
2023-03-24T10:19:30.860Z,8.50
2023-03-24T10:22:05.233Z,11.70
2023-03-24T10:24:42.264Z,11.47
2023-03-24T10:27:18.323Z,8.90
2023-03-24T10:29:48.674Z,11.53
2023-03-24T10:32:22.127Z,9.83
2023-03-24T10:34:55.835Z,12.90
2023-03-24T10:37:23.996Z,8.80
2023-03-24T10:39:52.532Z,13.50
2023-03-24T10:42:26.418Z,10.00
2023-03-24T10:44:54.610Z,7.13
2023-03-24T10:47:27.091Z,10.27
2023-03-24T10:49:58.022Z,9.40
2023-03-24T10:52:26.448Z,9.87
2023-03-24T10:54:56.204Z,8.77
2023-03-24T10:57:25.760Z,9.20
2023-03-24T10:59:57.342Z,8.37
2023-03-24T11:02:30.625Z,6.37
2023-03-24T11:05:02.288Z,8.37
2023-03-24T11:07:33.679Z,7.43
2023-03-24T11:10:07.124Z,8.20
2023-03-24T11:12:38.113Z,7.37
2023-03-24T11:15:22.092Z,10.23
2023-03-24T11:17:57.306Z,7.70
2023-03-24T11:20:33.053Z,8.53
2023-03-24T11:23:03.941Z,10.17
2023-03-24T11:25:34.830Z,10.13
2023-03-24T11:28:06.916Z,7.20
2023-03-24T11:30:36.898Z,8.20
2023-03-24T11:33:07.226Z,10.50
2023-03-24T11:35:41.796Z,7.10
2023-03-24T11:38:18.106Z,9.97
2023-03-24T11:40:58.256Z,8.17
2023-03-24T11:43:28.014Z,9.33
2023-03-24T11:46:02.365Z,9.07
2023-03-24T11:48:40.478Z,9.70
2023-03-24T11:51:12.550Z,7.93
2023-03-24T11:53:45.582Z,8.90
2023-03-24T11:56:22.192Z,10.13
2023-03-24T11:58:57.470Z,11.13
2023-03-24T12:01:31.265Z,8.80
2023-03-24T12:04:15.476Z,11.63
2023-03-24T12:06:55.594Z,12.80
2023-03-24T12:09:32.566Z,10.43
2023-03-24T12:12:32.014Z,9.80
2023-03-24T12:15:27.842Z,11.67
2023-03-24T12:18:08.797Z,11.93
2023-03-24T12:20:47.047Z,11.80
2023-03-24T12:23:21.342Z,10.87
2023-03-24T12:26:10.371Z,10.17
2023-03-24T12:28:53.693Z,12.00
2023-03-24T12:31:45.045Z,12.77
2023-03-24T12:34:35.443Z,9.87
2023-03-24T12:37:11.158Z,13.10
2023-03-24T12:39:49.058Z,11.37
2023-03-24T12:42:18.889Z,12.47
2023-03-24T12:45:13.480Z,13.40
2023-03-24T12:47:58.037Z,16.80
2023-03-24T12:50:37.542Z,11.30
2023-03-24T12:53:18.161Z,13.40
2023-03-24T12:55:52.444Z,14.20
2023-03-24T12:58:27.314Z,11.40
2023-03-24T13:01:04.609Z,11.67
2023-03-24T13:03:41.542Z,12.37
2023-03-24T13:06:17.747Z,11.80
2023-03-24T13:09:00.754Z,21.23
2023-03-24T13:11:35.871Z,16.53
2023-03-24T13:14:10.335Z,16.63
2023-03-24T13:16:41.082Z,15.10
2023-03-24T13:19:19.561Z,13.50
2023-03-24T13:21:48.871Z,13.20
2023-03-24T13:24:20.114Z,21.70
2023-03-24T13:26:56.154Z,15.87
2023-03-24T13:29:49.678Z,14.73
2023-03-24T13:32:30.152Z,11.87
2023-03-24T13:35:05.974Z,15.53
2023-03-24T13:37:37.473Z,11.70
2023-03-24T13:40:12.176Z,15.33
2023-03-24T13:42:46.345Z,12.30
2023-03-24T13:45:33.040Z,10.13
2023-03-24T13:48:07.854Z,11.07
2023-03-24T13:50:39.497Z,10.10
2023-03-24T13:53:14.939Z,10.80
2023-03-24T13:55:51.117Z,11.83
2023-03-24T13:58:22.039Z,8.20
2023-03-24T14:01:07.289Z,11.60
2023-03-24T14:03:37.623Z,10.87
2023-03-24T14:06:09.177Z,10.13
2023-03-24T14:08:55.995Z,11.93
2023-03-24T14:11:49.401Z,13.70
2023-03-24T14:14:23.221Z,11.33
2023-03-24T14:16:53.958Z,10.97
2023-03-24T14:19:27.516Z,12.23
2023-03-24T14:22:04.511Z,11.00
2023-03-24T14:24:32.931Z,14.37
2023-03-24T14:27:02.239Z,13.90
2023-03-24T14:29:50.676Z,11.30
2023-03-24T14:32:22.981Z,11.87
2023-03-24T14:34:54.052Z,12.20
2023-03-24T14:37:22.971Z,10.93
2023-03-24T14:39:52.132Z,12.33
2023-03-24T14:42:58.414Z,9.83
2023-03-24T14:45:41.251Z,9.23
2023-03-24T14:48:28.409Z,12.97
2023-03-24T14:51:02.014Z,10.37
2023-03-24T14:53:30.480Z,13.60
2023-03-24T14:55:59.224Z,9.00
2023-03-24T14:58:35.818Z,13.20
2023-03-24T15:01:07.888Z,10.47
2023-03-24T15:03:45.957Z,14.53
2023-03-24T15:06:15.989Z,12.90
2023-03-24T15:08:51.277Z,8.97
2023-03-24T15:11:23.046Z,11.17
2023-03-24T15:13:54.479Z,11.57
2023-03-24T15:16:25.157Z,13.80
2023-03-24T15:21:30.190Z,10.53
2023-03-24T15:24:01.037Z,11.73
2023-03-24T15:26:30.330Z,14.30
2023-03-24T15:29:02.027Z,12.97
2023-03-24T15:31:31.162Z,14.90
2023-03-24T15:34:07.638Z,16.53
2023-03-24T15:36:40.844Z,12.17
2023-03-24T15:39:20.811Z,14.10
2023-03-24T15:41:53.731Z,21.93
2023-03-24T15:44:27.444Z,11.17
2023-03-24T15:46:57.295Z,12.50
2023-03-24T15:49:27.913Z,16.63
2023-03-24T15:51:59.982Z,10.57
2023-03-24T15:54:30.774Z,23.70
2023-03-24T15:57:21.076Z,15.53
2023-03-24T15:59:52.310Z,14.67
2023-03-24T16:02:31.420Z,15.10
2023-03-24T16:05:11.011Z,12.03
2023-03-24T16:07:42.423Z,13.30
2023-03-24T16:10:32.404Z,14.43
2023-03-24T16:13:14.590Z,23.80
2023-03-24T16:15:46.064Z,22.57
2023-03-24T16:18:18.168Z,22.30
2023-03-24T16:20:46.256Z,23.13
2023-03-24T16:23:14.409Z,16.50
2023-03-24T16:25:42.329Z,18.50
2023-03-24T16:28:13.214Z,20.43
2023-03-24T16:30:44.623Z,17.00
2023-03-24T16:33:13.579Z,19.40
2023-03-24T16:35:41.535Z,15.17
2023-03-24T16:38:13.608Z,18.13
2023-03-24T16:40:44.767Z,29.37
2023-03-24T16:43:12.817Z,19.27
2023-03-24T16:45:40.705Z,14.27
2023-03-24T16:48:11.210Z,16.13
2023-03-24T16:50:41.042Z,14.17
2023-03-24T16:53:09.761Z,23.83
2023-03-24T16:55:38.629Z,20.97
2023-03-24T16:58:07.161Z,21.13
2023-03-24T17:00:38.278Z,20.53
2023-03-24T17:03:08.067Z,19.60
2023-03-24T17:05:41.742Z,18.60
2023-03-24T17:08:10.504Z,20.30
2023-03-24T17:10:38.723Z,23.07
2023-03-24T17:13:06.880Z,20.73
2023-03-24T17:15:34.710Z,20.00
2023-03-24T17:18:03.868Z,19.70
2023-03-24T17:20:31.960Z,21.03
2023-03-24T17:23:04.104Z,19.00
2023-03-24T17:25:32.236Z,22.37
2023-03-24T17:28:00.248Z,19.10
2023-03-24T17:30:30.202Z,17.23
2023-03-24T17:32:58.233Z,15.23
2023-03-24T17:35:26.562Z,16.93
2023-03-24T17:37:54.608Z,12.90
2023-03-24T17:40:23.808Z,15.17
2023-03-24T17:42:51.702Z,16.50
2023-03-24T17:45:20.583Z,13.70
2023-03-24T17:47:48.569Z,13.20
2023-03-24T17:50:16.719Z,15.73
2023-03-24T17:52:46.447Z,14.53
2023-03-24T17:55:16.115Z,13.80
2023-03-24T17:57:46.049Z,13.57
2023-03-24T18:00:16.474Z,15.80
2023-03-24T18:02:45.271Z,15.40
2023-03-24T18:05:15.800Z,19.70
2023-03-24T18:07:43.804Z,17.10
2023-03-24T18:10:11.778Z,12.40
2023-03-24T18:12:39.709Z,11.70
2023-03-24T18:15:10.481Z,13.60
2023-03-24T18:17:38.484Z,13.20
2023-03-24T18:20:10.792Z,13.37
2023-03-24T18:22:40.973Z,11.27
2023-03-24T18:25:10.816Z,14.53
2023-03-24T18:27:39.495Z,12.27
2023-03-24T18:30:11.467Z,13.10
2023-03-24T18:32:39.864Z,14.30
2023-03-24T18:35:10.174Z,15.80
2023-03-24T18:37:38.805Z,9.97
2023-03-24T18:40:08.998Z,14.87
2023-03-24T18:42:37.020Z,13.67
2023-03-24T18:45:06.001Z,16.60
2023-03-24T18:47:35.860Z,12.10
2023-03-24T18:50:04.551Z,15.27
2023-03-24T18:52:33.071Z,13.60
2023-03-24T18:55:02.396Z,11.70
2023-03-24T18:57:31.063Z,12.30
2023-03-24T19:00:00.294Z,10.43
2023-03-24T19:02:28.535Z,33.00
2023-03-24T19:04:57.897Z,18.63
2023-03-24T19:07:26.251Z,9.27
2023-03-24T19:09:55.324Z,14.63
2023-03-24T19:12:23.254Z,7.73
2023-03-24T19:14:54.066Z,7.37
2023-03-24T19:17:23.616Z,9.80
2023-03-24T19:19:51.729Z,6.30
2023-03-24T19:22:22.154Z,6.00
2023-03-24T19:24:50.676Z,5.70
2023-03-24T19:27:18.958Z,6.67
2023-03-24T19:29:47.495Z,7.27
2023-03-24T19:32:15.511Z,6.87
2023-03-24T19:34:43.392Z,6.00
2023-03-24T19:37:13.850Z,6.83
2023-03-24T19:39:43.087Z,5.80
2023-03-24T19:42:10.950Z,7.70
2023-03-24T19:44:38.835Z,5.20
2023-03-24T19:47:06.679Z,5.47
2023-03-24T19:49:34.545Z,5.00
2023-03-24T19:52:03.638Z,4.17
2023-03-24T19:54:31.576Z,5.17
2023-03-24T19:57:00.913Z,5.70
2023-03-24T19:59:29.002Z,5.30
2023-03-24T20:01:57.002Z,6.47
2023-03-24T20:04:25.941Z,8.50
2023-03-24T20:06:53.900Z,10.50
2023-03-24T20:09:21.742Z,11.17
2023-03-24T20:11:52.395Z,11.90
2023-03-24T20:14:21.670Z,10.77
2023-03-24T20:16:49.729Z,13.10
2023-03-24T20:19:17.743Z,11.67
2023-03-24T20:21:45.842Z,12.10
2023-03-24T20:24:14.710Z,12.70
2023-03-24T20:26:42.806Z,12.70
2023-03-24T20:29:10.709Z,12.10
2023-03-24T20:31:41.806Z,12.63
2023-03-24T20:34:10.830Z,11.30
2023-03-24T20:36:41.307Z,11.77
2023-03-24T20:39:09.632Z,10.80
2023-03-24T20:41:37.612Z,10.07
2023-03-24T20:44:06.038Z,9.27
2023-03-24T20:46:34.294Z,9.03
2023-03-24T20:49:03.963Z,9.37
2023-03-24T20:51:31.844Z,10.30
2023-03-24T20:53:59.716Z,11.83
2023-03-24T20:56:27.789Z,22.67
2023-03-24T20:58:55.637Z,12.83
2023-03-24T21:01:24.591Z,13.00
2023-03-24T21:03:54.593Z,10.50
2023-03-24T21:06:24.340Z,9.20
2023-03-24T21:08:54.307Z,10.70
2023-03-24T21:11:22.659Z,11.73
2023-03-24T21:13:50.728Z,19.30
2023-03-24T21:16:23.379Z,16.13
2023-03-24T21:18:51.340Z,10.20
2023-03-24T21:21:19.197Z,9.53
2023-03-24T21:23:48.431Z,12.57
2023-03-24T21:26:18.092Z,14.37
2023-03-24T21:28:46.678Z,17.93
2023-03-24T21:31:18.883Z,21.80
2023-03-24T21:33:47.101Z,22.90
2023-03-24T21:36:15.825Z,23.57
2023-03-24T21:38:44.340Z,23.80
2023-03-24T21:41:13.635Z,25.50
2023-03-24T21:43:42.153Z,23.30
2023-03-24T21:46:14.818Z,21.50
2023-03-24T21:48:51.295Z,23.77
2023-03-24T21:51:21.253Z,20.33
2023-03-24T21:53:49.156Z,21.77
2023-03-24T21:56:20.206Z,23.07
2023-03-24T21:58:48.231Z,25.07
2023-03-24T22:01:16.728Z,19.13
2023-03-24T22:03:46.414Z,19.37
2023-03-24T22:06:14.970Z,20.57
2023-03-24T22:08:44.207Z,18.40
2023-03-24T22:11:15.236Z,18.40
2023-03-24T22:13:44.539Z,21.40
2023-03-24T22:16:12.440Z,20.50
2023-03-24T22:18:40.380Z,18.43
2023-03-24T22:21:10.497Z,19.57
2023-03-24T22:23:42.454Z,18.37
2023-03-24T22:26:13.315Z,17.60
2023-03-24T22:28:42.107Z,18.90
2023-03-24T22:31:13.721Z,21.70
2023-03-24T22:33:42.042Z,21.10
2023-03-24T22:36:11.207Z,20.93
2023-03-24T22:38:39.222Z,20.43
2023-03-24T22:41:09.827Z,18.73
2023-03-24T22:43:39.356Z,19.17
2023-03-24T22:46:08.005Z,18.60
2023-03-24T22:48:39.342Z,19.23
2023-03-24T22:51:08.713Z,19.20
2023-03-24T22:53:37.037Z,17.47
2023-03-24T22:56:06.304Z,16.77
2023-03-24T22:58:35.610Z,17.60
2023-03-24T23:01:03.841Z,20.60
2023-03-24T23:03:31.897Z,17.97
2023-03-24T23:06:03.043Z,17.50
2023-03-24T23:08:32.307Z,20.60
2023-03-24T23:11:00.972Z,17.03
2023-03-24T23:13:30.835Z,18.23
2023-03-24T23:15:58.877Z,19.30
2023-03-24T23:18:26.834Z,20.37
2023-03-24T23:21:06.924Z,21.00
2023-03-24T23:23:35.022Z,19.10
2023-03-24T23:26:04.792Z,20.97
2023-03-24T23:28:33.141Z,23.23
2023-03-24T23:31:00.991Z,19.13
2023-03-24T23:33:29.358Z,21.53
2023-03-24T23:35:58.826Z,20.57
2023-03-24T23:38:28.369Z,21.07
2023-03-24T23:40:56.309Z,19.63
2023-03-24T23:43:24.201Z,20.57
2023-03-24T23:45:55.592Z,21.27
2023-03-24T23:48:23.524Z,20.70
2023-03-24T23:50:56.693Z,19.43
2023-03-24T23:53:24.796Z,20.30
2023-03-24T23:55:57.021Z,21.77
2023-03-24T23:58:25.469Z,18.97
